createdAt,value
2018-06-05T12:42:46.562Z,1008.40
2018-06-05T12:43:22.483Z,1008.37
2018-06-05T12:44:48.217Z,1008.39
2018-06-05T12:45:23.518Z,1008.34
2018-06-05T12:45:59.026Z,1008.35
2018-06-05T12:46:34.331Z,1008.35
2018-06-05T12:47:09.534Z,1008.37
2018-06-05T12:47:45.115Z,1008.33
2018-06-05T12:48:20.736Z,1008.33
2018-06-05T12:48:56.302Z,1008.35
2018-06-05T12:49:31.575Z,1008.32
2018-06-05T12:50:06.786Z,1008.32
2018-06-05T12:50:42.051Z,1008.38
2018-06-05T12:51:17.276Z,1008.32
2018-06-05T12:51:53.852Z,1008.34
2018-06-05T12:52:29.284Z,1008.37
2018-06-05T12:53:05.080Z,1008.33
2018-06-05T12:53:40.368Z,1008.32
2018-06-05T12:54:15.793Z,1008.34
2018-06-05T12:54:50.918Z,1008.36
2018-06-05T12:55:26.562Z,1008.32
2018-06-05T12:56:01.824Z,1008.30
2018-06-05T12:56:37.147Z,1008.30
2018-06-05T12:57:12.522Z,1008.28
2018-06-05T12:57:51.933Z,1008.31
2018-06-05T12:58:27.185Z,1008.33
2018-06-05T12:59:04.443Z,1008.28
2018-06-05T12:59:39.694Z,1008.30
2018-06-05T13:00:15.079Z,1008.27
2018-06-05T13:00:50.145Z,1008.28
2018-06-05T13:01:25.348Z,1008.29
2018-06-05T13:02:00.852Z,1008.28
2018-06-05T13:02:36.370Z,1008.27
2018-06-05T13:03:12.092Z,1008.28
2018-06-05T13:03:47.388Z,1008.28
2018-06-05T13:04:22.688Z,1008.27
2018-06-05T13:04:58.308Z,1008.25
2018-06-05T13:05:33.624Z,1008.27
2018-06-05T13:06:08.902Z,1008.26
2018-06-05T13:06:44.427Z,1008.25
2018-06-05T13:07:19.741Z,1008.27
2018-06-05T13:07:55.123Z,1008.23
2018-06-05T13:08:30.335Z,1008.26
2018-06-05T13:09:05.907Z,1008.25
2018-06-05T13:09:41.309Z,1008.25
2018-06-05T13:10:16.337Z,1008.23
2018-06-05T13:10:54.544Z,1008.24
2018-06-05T13:11:32.952Z,1008.25
2018-06-05T13:12:08.500Z,1008.26
2018-06-05T13:12:45.922Z,1008.24
2018-06-05T13:13:23.623Z,1008.23
2018-06-05T13:14:02.946Z,1008.20
2018-06-05T13:14:41.741Z,1008.21
2018-06-05T13:15:18.921Z,1008.19
2018-06-05T13:15:55.818Z,1008.20
2018-06-05T13:16:31.135Z,1008.24
2018-06-05T13:17:06.830Z,1008.24
2018-06-05T13:17:42.275Z,1008.22
2018-06-05T13:18:17.502Z,1008.23
2018-06-05T13:18:52.589Z,1008.26
2018-06-05T13:19:28.117Z,1008.24
2018-06-05T13:20:03.513Z,1008.26
2018-06-05T13:20:39.486Z,1008.26
2018-06-05T13:21:15.183Z,1008.26
2018-06-05T13:21:50.728Z,1008.26
2018-06-05T13:22:26.157Z,1008.28
2018-06-05T13:23:01.655Z,1008.25
2018-06-05T13:23:36.824Z,1008.27
2018-06-05T13:24:12.099Z,1008.24
2018-06-05T13:24:47.228Z,1008.25
2018-06-05T13:25:24.817Z,1008.24
2018-06-05T13:25:59.968Z,1008.22
2018-06-05T13:26:35.575Z,1008.26
2018-06-05T13:27:10.897Z,1008.20
2018-06-05T13:27:46.194Z,1008.20
2018-06-05T13:28:21.561Z,1008.22
2018-06-05T13:28:57.182Z,1008.19
2018-06-05T13:29:32.406Z,1008.16
2018-06-05T13:30:08.042Z,1008.17
2018-06-05T13:30:44.680Z,1008.18
2018-06-05T13:31:20.352Z,1008.17
2018-06-05T13:31:55.430Z,1008.15
2018-06-05T13:32:30.740Z,1008.16
2018-06-05T13:33:07.158Z,1008.13
2018-06-05T13:33:42.530Z,1008.12
2018-06-05T13:34:17.722Z,1008.12
2018-06-05T13:34:53.046Z,1008.13
2018-06-05T13:35:28.251Z,1008.09
2018-06-05T13:36:03.483Z,1008.08
2018-06-05T13:36:38.784Z,1008.09
2018-06-05T13:37:14.355Z,1008.08
2018-06-05T13:37:49.835Z,1008.10
2018-06-05T13:38:25.025Z,1008.12
2018-06-05T13:39:00.541Z,1008.09
2018-06-05T13:39:35.825Z,1008.12
2018-06-05T13:40:11.603Z,1008.09
2018-06-05T13:40:47.088Z,1008.07
2018-06-05T13:41:22.620Z,1008.10
2018-06-05T13:41:58.288Z,1008.09
2018-06-05T13:42:33.562Z,1008.10
2018-06-05T13:43:09.470Z,1008.09
2018-06-05T13:43:44.925Z,1008.08
2018-06-05T13:44:20.492Z,1008.07
2018-06-05T13:44:55.772Z,1008.08
2018-06-05T13:45:30.912Z,1008.10
2018-06-05T13:46:06.299Z,1008.04
2018-06-05T13:46:42.806Z,1008.11
2018-06-05T13:47:18.251Z,1008.09
2018-06-05T13:47:53.498Z,1008.08
2018-06-05T13:48:28.539Z,1008.07
2018-06-05T13:49:03.853Z,1008.04
2018-06-05T13:49:39.563Z,1008.09
2018-06-05T13:50:14.979Z,1008.04
2018-06-05T13:50:50.391Z,1008.10
2018-06-05T13:51:25.702Z,1008.06
2018-06-05T13:52:01.103Z,1008.05
2018-06-05T13:52:36.471Z,1008.04
2018-06-05T13:53:12.235Z,1008.08
2018-06-05T13:53:47.881Z,1008.07
2018-06-05T13:54:23.194Z,1008.03
2018-06-05T13:54:58.715Z,1008.06
2018-06-05T13:55:34.115Z,1008.03
2018-06-05T13:56:10.255Z,1008.03
2018-06-05T13:56:45.780Z,1008.01
2018-06-05T13:57:21.521Z,1008.02
2018-06-05T13:57:56.945Z,1008.00
2018-06-05T13:58:33.252Z,1008.02
2018-06-05T13:59:09.054Z,1008.03
2018-06-05T13:59:44.210Z,1008.02
2018-06-05T14:00:19.451Z,1008.04
2018-06-05T14:00:55.941Z,1008.01
2018-06-05T14:01:31.058Z,1008.04
2018-06-05T14:02:06.336Z,1008.03
2018-06-05T14:02:41.665Z,1008.04
2018-06-05T14:03:16.975Z,1008.03
2018-06-05T14:03:53.320Z,1008.04
2018-06-05T14:04:28.716Z,1008.02
2018-06-05T14:05:03.959Z,1008.07
2018-06-05T14:05:39.476Z,1008.03
2018-06-05T14:06:14.554Z,1008.02
2018-06-05T14:06:49.904Z,1008.04
2018-06-05T14:07:26.017Z,1008.04
2018-06-05T14:08:01.360Z,1008.02
2018-06-05T14:08:36.678Z,1008.00
2018-06-05T14:09:12.277Z,1008.02
2018-06-05T14:09:48.188Z,1008.00
2018-06-05T14:10:23.308Z,1008.01
2018-06-05T14:10:59.221Z,1007.99
2018-06-05T14:11:34.434Z,1008.02
2018-06-05T14:12:09.783Z,1008.03
2018-06-05T14:12:45.984Z,1008.05
2018-06-05T14:13:21.516Z,1008.03
2018-06-05T14:13:56.759Z,1008.04
2018-06-05T14:14:32.279Z,1008.05
2018-06-05T14:15:07.471Z,1008.03
2018-06-05T14:15:44.195Z,1008.05
2018-06-05T14:16:20.231Z,1008.03
2018-06-05T14:16:55.680Z,1008.03
2018-06-05T14:17:30.988Z,1007.99
2018-06-05T14:18:06.277Z,1008.00
2018-06-05T14:18:42.661Z,1008.02
2018-06-05T14:19:17.943Z,1008.02
2018-06-05T14:19:53.279Z,1007.99
2018-06-05T14:20:28.809Z,1007.97
2018-06-05T14:21:04.057Z,1007.97
2018-06-05T14:21:39.680Z,1007.95
2018-06-05T14:22:14.924Z,1007.96
2018-06-05T14:22:50.422Z,1007.96
2018-06-05T14:23:25.790Z,1007.96
2018-06-05T14:24:01.056Z,1007.96
2018-06-05T14:24:36.826Z,1007.97
2018-06-05T14:25:12.170Z,1007.99
2018-06-05T14:25:48.279Z,1007.99
2018-06-05T14:26:23.536Z,1007.97
2018-06-05T14:27:00.427Z,1007.97
2018-06-05T14:27:35.848Z,1008.00
2018-06-05T14:28:11.163Z,1008.01
2018-06-05T14:28:48.412Z,1008.00
2018-06-05T14:29:23.825Z,1007.98
2018-06-05T14:29:59.057Z,1007.98
2018-06-05T14:30:34.698Z,1007.97
2018-06-05T14:31:10.000Z,1007.98
2018-06-05T14:31:45.470Z,1007.95
2018-06-05T14:32:20.734Z,1007.90
2018-06-05T14:32:56.266Z,1007.92
2018-06-05T14:33:31.541Z,1007.93
2018-06-05T14:34:07.191Z,1007.93
2018-06-05T14:34:43.792Z,1007.92
2018-06-05T14:35:19.131Z,1007.92
2018-06-05T14:35:54.478Z,1007.90
2018-06-05T14:36:30.290Z,1007.87
2018-06-05T14:37:06.966Z,1007.89
2018-06-05T14:37:42.713Z,1007.87
2018-06-05T14:38:19.098Z,1007.86
2018-06-05T14:38:54.596Z,1007.87
2018-06-05T14:39:30.129Z,1007.87
2018-06-05T14:40:05.528Z,1007.87
2018-06-05T14:40:43.392Z,1007.86
2018-06-05T14:41:18.705Z,1007.82
2018-06-05T14:41:54.329Z,1007.80
2018-06-05T14:42:29.851Z,1007.82
2018-06-05T14:43:05.145Z,1007.76
2018-06-05T14:43:40.362Z,1007.77
2018-06-05T14:44:15.773Z,1007.75
2018-06-05T14:44:51.424Z,1007.82
2018-06-05T14:45:26.991Z,1007.77
2018-06-05T14:46:02.487Z,1007.78
2018-06-05T14:46:38.467Z,1007.78
2018-06-05T14:47:13.682Z,1007.74
2018-06-05T14:47:49.104Z,1007.75
2018-06-05T14:48:24.791Z,1007.75
2018-06-05T14:49:00.038Z,1007.74
2018-06-05T14:49:35.464Z,1007.77
2018-06-05T14:50:10.608Z,1007.79
2018-06-05T14:50:50.587Z,1007.81
2018-06-05T14:51:26.207Z,1007.80
2018-06-05T14:52:01.610Z,1007.82
2018-06-05T14:52:38.023Z,1007.83
2018-06-05T14:53:13.421Z,1007.77
2018-06-05T14:53:48.937Z,1007.74
2018-06-05T14:54:24.539Z,1007.76
2018-06-05T14:54:59.843Z,1007.74
2018-06-05T14:55:35.002Z,1007.72
2018-06-05T14:56:10.179Z,1007.69
2018-06-05T14:56:45.655Z,1007.69
2018-06-05T14:57:21.239Z,1007.71
2018-06-05T14:57:56.666Z,1007.72
2018-06-05T14:58:31.862Z,1007.74
2018-06-05T14:59:07.186Z,1007.69
2018-06-05T14:59:42.662Z,1007.76
2018-06-05T15:00:18.043Z,1007.71
2018-06-05T15:00:55.286Z,1007.73
2018-06-05T15:01:30.697Z,1007.71
2018-06-05T15:02:06.449Z,1007.72
2018-06-05T15:02:41.866Z,1007.69
2018-06-05T15:03:17.206Z,1007.69
2018-06-05T15:03:52.822Z,1007.70
2018-06-05T15:04:28.540Z,1007.65
2018-06-05T15:05:04.376Z,1007.64
2018-06-05T15:05:41.198Z,1007.64
2018-06-05T15:06:16.355Z,1007.68
2018-06-05T15:06:52.502Z,1007.71
2018-06-05T15:07:27.921Z,1007.68
2018-06-05T15:08:03.134Z,1007.66
2018-06-05T15:08:38.880Z,1007.67
2018-06-05T15:09:15.135Z,1007.63
2018-06-05T15:09:50.454Z,1007.66
2018-06-05T15:10:25.967Z,1007.70
2018-06-05T15:11:01.232Z,1007.70
2018-06-05T15:11:36.566Z,1007.68
2018-06-05T15:12:11.856Z,1007.67
2018-06-05T15:12:48.334Z,1007.66
2018-06-05T15:13:23.835Z,1007.64
2018-06-05T15:13:59.060Z,1007.58
2018-06-05T15:14:34.960Z,1007.62
2018-06-05T15:15:10.402Z,1007.55
2018-06-05T15:15:48.074Z,1007.57
2018-06-05T15:16:23.586Z,1007.55
2018-06-05T15:16:59.093Z,1007.56
2018-06-05T15:17:34.838Z,1007.59
2018-06-05T15:18:10.462Z,1007.53
2018-06-05T15:18:46.089Z,1007.54
2018-06-05T15:19:22.524Z,1007.55
2018-06-05T15:19:57.917Z,1007.57
2018-06-05T15:20:33.228Z,1007.54
2018-06-05T15:21:08.744Z,1007.55
2018-06-05T15:21:44.401Z,1007.57
2018-06-05T15:22:19.893Z,1007.58
2018-06-05T15:22:55.389Z,1007.62
2018-06-05T15:23:32.526Z,1007.54
2018-06-05T15:24:07.935Z,1007.55
2018-06-05T15:24:43.855Z,1007.50
2018-06-05T15:25:19.171Z,1007.49
2018-06-05T15:25:54.812Z,1007.50
2018-06-05T15:26:30.839Z,1007.50
2018-06-05T15:27:06.085Z,1007.50
2018-06-05T15:27:41.424Z,1007.48
2018-06-05T15:28:17.138Z,1007.46
2018-06-05T15:28:52.452Z,1007.44
2018-06-05T15:29:27.748Z,1007.47
2018-06-05T15:30:03.204Z,1007.45
2018-06-05T15:30:40.206Z,1007.47
2018-06-05T15:31:15.372Z,1007.44
2018-06-05T15:31:50.861Z,1007.43
2018-06-05T15:32:26.197Z,1007.42
2018-06-05T15:33:02.606Z,1007.45
2018-06-05T15:33:38.015Z,1007.43
2018-06-05T15:34:13.538Z,1007.42
2018-06-05T15:34:49.916Z,1007.41
2018-06-05T15:35:25.300Z,1007.43
2018-06-05T15:36:00.747Z,1007.41
2018-06-05T15:36:36.345Z,1007.41
2018-06-05T15:37:11.799Z,1007.40
2018-06-05T15:37:46.941Z,1007.37
2018-06-05T15:38:21.993Z,1007.42
2018-06-05T15:38:57.707Z,1007.38
2018-06-05T15:39:33.046Z,1007.36
2018-06-05T15:40:08.336Z,1007.35
2018-06-05T15:40:45.703Z,1007.38
2018-06-05T15:41:20.896Z,1007.38
2018-06-05T15:41:56.863Z,1007.36
2018-06-05T15:42:32.286Z,1007.38
2018-06-05T15:43:07.798Z,1007.38
2018-06-05T15:43:43.056Z,1007.36
2018-06-05T15:44:19.340Z,1007.36
2018-06-05T15:44:54.579Z,1007.31
2018-06-05T15:45:29.892Z,1007.38
2018-06-05T15:46:05.310Z,1007.39
2018-06-05T15:46:40.623Z,1007.37
2018-06-05T15:47:16.444Z,1007.37
2018-06-05T15:47:52.095Z,1007.43
2018-06-05T15:48:27.472Z,1007.38
2018-06-05T15:49:02.921Z,1007.36
2018-06-05T15:49:38.299Z,1007.39
2018-06-05T15:50:14.163Z,1007.37
2018-06-05T15:50:50.658Z,1007.38
2018-06-05T15:51:26.120Z,1007.36
2018-06-05T15:52:01.300Z,1007.37
2018-06-05T15:52:36.631Z,1007.37
2018-06-05T15:53:12.086Z,1007.37
2018-06-05T15:53:47.206Z,1007.32
2018-06-05T15:54:23.730Z,1007.38
2018-06-05T15:54:59.447Z,1007.34
2018-06-05T15:55:35.757Z,1007.35
2018-06-05T15:56:11.321Z,1007.34
2018-06-05T15:56:50.097Z,1007.34
2018-06-05T15:57:25.535Z,1007.35
2018-06-05T15:58:00.856Z,1007.35
2018-06-05T15:58:36.198Z,1007.35
2018-06-05T15:59:11.819Z,1007.34
2018-06-05T15:59:47.538Z,1007.31
2018-06-05T16:00:23.066Z,1007.32
2018-06-05T16:01:01.886Z,1007.34
2018-06-05T16:01:37.011Z,1007.34
2018-06-05T16:02:12.325Z,1007.33
2018-06-05T16:02:47.806Z,1007.33
2018-06-05T16:03:23.243Z,1007.33
2018-06-05T16:03:58.669Z,1007.29
2018-06-05T16:04:34.000Z,1007.34
2018-06-05T16:05:09.579Z,1007.32
2018-06-05T16:05:44.811Z,1007.35
2018-06-05T16:06:20.165Z,1007.35
2018-06-05T16:06:56.558Z,1007.37
2018-06-05T16:07:31.766Z,1007.31
2018-06-05T16:08:06.986Z,1007.34
2018-06-05T16:08:42.205Z,1007.34
2018-06-05T16:09:17.416Z,1007.32
2018-06-05T16:09:52.827Z,1007.28
2018-06-05T16:10:27.971Z,1007.27
2018-06-05T16:11:03.386Z,1007.25
2018-06-05T16:11:38.647Z,1007.23
2018-06-05T16:12:16.634Z,1007.29
2018-06-05T16:12:51.872Z,1007.30
2018-06-05T16:13:27.062Z,1007.25
2018-06-05T16:14:02.692Z,1007.28
2018-06-05T16:14:38.016Z,1007.30
2018-06-05T16:15:13.435Z,1007.18
2018-06-05T16:15:49.771Z,1007.23
2018-06-05T16:16:25.201Z,1007.22
2018-06-05T16:17:00.497Z,1007.23
2018-06-05T16:17:35.841Z,1007.22
2018-06-05T16:18:11.237Z,1007.18
2018-06-05T16:18:46.969Z,1007.24
2018-06-05T16:19:22.821Z,1007.24
2018-06-05T16:19:58.129Z,1007.20
2018-06-05T16:20:33.649Z,1007.22
2018-06-05T16:21:08.989Z,1007.21
2018-06-05T16:21:44.485Z,1007.17
2018-06-05T16:22:19.937Z,1007.22
2018-06-05T16:22:55.125Z,1007.16
2018-06-05T16:23:30.381Z,1007.18
2018-06-05T16:24:05.876Z,1007.15
2018-06-05T16:24:41.375Z,1007.17
2018-06-05T16:25:16.775Z,1007.16
2018-06-05T16:25:52.082Z,1007.15
2018-06-05T16:26:27.472Z,1007.10
2018-06-05T16:27:02.863Z,1007.13
2018-06-05T16:27:38.391Z,1007.08
2018-06-05T16:28:14.100Z,1007.10
2018-06-05T16:28:49.392Z,1007.09
2018-06-05T16:29:25.036Z,1007.09
2018-06-05T16:30:00.412Z,1007.07
2018-06-05T16:30:36.245Z,1007.08
2018-06-05T16:31:11.625Z,1007.09
2018-06-05T16:31:46.652Z,1007.07
2018-06-05T16:32:24.110Z,1007.07
2018-06-05T16:32:59.951Z,1007.05
2018-06-05T16:33:35.061Z,1007.08
2018-06-05T16:34:10.784Z,1007.12
2018-06-05T16:34:46.499Z,1007.08
2018-06-05T16:35:23.340Z,1007.08
2018-06-05T16:35:58.761Z,1007.08
2018-06-05T16:36:34.324Z,1007.07
2018-06-05T16:37:09.730Z,1007.07
2018-06-05T16:37:45.069Z,1007.05
2018-06-05T16:38:20.467Z,1007.06
2018-06-05T16:38:55.788Z,1007.10
2018-06-05T16:39:31.468Z,1007.06
2018-06-05T16:40:07.217Z,1007.04
2018-06-05T16:40:45.114Z,1007.03
2018-06-05T16:41:20.477Z,1007.03
2018-06-05T16:41:55.682Z,1007.01
2018-06-05T16:42:31.338Z,1007.04
2018-06-05T16:43:06.742Z,1007.03
2018-06-05T16:43:42.662Z,1007.01
2018-06-05T16:44:18.252Z,1007.05
2018-06-05T16:44:53.670Z,1007.03
2018-06-05T16:45:29.907Z,1007.01
2018-06-05T16:46:05.044Z,1007.00
2018-06-05T16:46:41.043Z,1007.01
2018-06-05T16:47:16.473Z,1007.04
2018-06-05T16:47:51.875Z,1007.04
2018-06-05T16:48:27.286Z,1007.04
2018-06-05T16:49:02.819Z,1007.03
2018-06-05T16:49:38.562Z,1006.98
2018-06-05T16:50:13.857Z,1006.97
2018-06-05T16:50:50.003Z,1007.00
2018-06-05T16:51:25.324Z,1006.99
2018-06-05T16:52:00.841Z,1006.97
2018-06-05T16:52:36.121Z,1007.01
2018-06-05T16:53:11.442Z,1007.01
2018-06-05T16:53:49.775Z,1007.02
2018-06-05T16:54:24.906Z,1006.98
2018-06-05T16:55:00.389Z,1007.01
2018-06-05T16:55:36.466Z,1006.99
2018-06-05T16:56:12.051Z,1006.94
2018-06-05T16:56:47.369Z,1006.95
2018-06-05T16:57:22.559Z,1006.96
2018-06-05T16:57:58.192Z,1006.98
2018-06-05T16:58:33.995Z,1007.00
2018-06-05T16:59:09.407Z,1006.95
2018-06-05T16:59:44.745Z,1006.95
2018-06-05T17:00:20.052Z,1006.93
2018-06-05T17:00:58.591Z,1006.93
2018-06-05T17:01:33.925Z,1006.93
2018-06-05T17:02:09.430Z,1006.92
2018-06-05T17:02:44.672Z,1006.92
2018-06-05T17:03:20.083Z,1006.94
2018-06-05T17:03:55.417Z,1006.91
2018-06-05T17:04:30.920Z,1006.95
2018-06-05T17:05:06.061Z,1006.92
2018-06-05T17:05:41.658Z,1006.93
2018-06-05T17:06:17.703Z,1006.91
2018-06-05T17:06:52.896Z,1006.91
2018-06-05T17:07:29.611Z,1006.92
2018-06-05T17:08:05.132Z,1006.94
2018-06-05T17:08:40.475Z,1006.89
2018-06-05T17:09:15.762Z,1006.92
2018-06-05T17:09:51.186Z,1006.91
2018-06-05T17:10:26.667Z,1006.90
2018-06-05T17:11:02.313Z,1006.90
2018-06-05T17:11:38.742Z,1006.90
2018-06-05T17:12:14.170Z,1006.87
2018-06-05T17:12:49.625Z,1006.88
2018-06-05T17:13:25.089Z,1006.88
2018-06-05T17:14:00.503Z,1006.87
2018-06-05T17:14:35.529Z,1006.87
2018-06-05T17:15:10.705Z,1006.87
2018-06-05T17:15:48.152Z,1006.88
2018-06-05T17:16:23.332Z,1006.84
2018-06-05T17:16:58.412Z,1006.85
2018-06-05T17:17:35.321Z,1006.85
2018-06-05T17:18:10.958Z,1006.83
2018-06-05T17:18:48.072Z,1006.89
2018-06-05T17:19:23.840Z,1006.86
2018-06-05T17:19:59.323Z,1006.84
2018-06-05T17:20:34.658Z,1006.84
2018-06-05T17:21:11.674Z,1006.86
2018-06-05T17:21:47.050Z,1006.88
2018-06-05T17:22:23.165Z,1006.86
2018-06-05T17:22:58.839Z,1006.84
2018-06-05T17:23:34.221Z,1006.85
2018-06-05T17:24:09.639Z,1006.83
2018-06-05T17:24:44.870Z,1006.81
2018-06-05T17:25:20.191Z,1006.82
2018-06-05T17:25:57.117Z,1006.85
2018-06-05T17:26:32.278Z,1006.88
2018-06-05T17:27:07.798Z,1006.82
2018-06-05T17:27:43.249Z,1006.85
2018-06-05T17:28:18.550Z,1006.82
2018-06-05T17:28:54.709Z,1006.88
2018-06-05T17:29:30.020Z,1006.86
2018-06-05T17:30:05.793Z,1006.85
2018-06-05T17:30:42.614Z,1006.85
2018-06-05T17:31:17.933Z,1006.83
2018-06-05T17:31:53.211Z,1006.83
2018-06-05T17:32:28.653Z,1006.83
2018-06-05T17:33:03.801Z,1006.85
2018-06-05T17:33:39.606Z,1006.84
2018-06-05T17:34:15.033Z,1006.86
2018-06-05T17:34:50.999Z,1006.80
2018-06-05T17:35:26.293Z,1006.84
2018-06-05T17:36:02.061Z,1006.82
2018-06-05T17:36:37.650Z,1006.79
2018-06-05T17:37:12.997Z,1006.85
2018-06-05T17:37:48.403Z,1006.85
2018-06-05T17:38:23.859Z,1006.84
2018-06-05T17:38:59.169Z,1006.85
2018-06-05T17:39:34.999Z,1006.85
2018-06-05T17:40:10.531Z,1006.87
2018-06-05T17:40:46.062Z,1006.88
2018-06-05T17:41:21.263Z,1006.84
2018-06-05T17:41:56.518Z,1006.83
2018-06-05T17:42:32.008Z,1006.84
2018-06-05T17:43:07.228Z,1006.85
2018-06-05T17:43:43.067Z,1006.82
2018-06-05T17:44:18.808Z,1006.82
2018-06-05T17:44:54.426Z,1006.81
2018-06-05T17:45:29.812Z,1006.80
2018-06-05T17:46:05.461Z,1006.76
2018-06-05T17:46:42.022Z,1006.78
2018-06-05T17:47:17.628Z,1006.79
2018-06-05T17:47:52.952Z,1006.78
2018-06-05T17:48:28.391Z,1006.76
2018-06-05T17:49:03.844Z,1006.79
2018-06-05T17:49:39.365Z,1006.78
2018-06-05T17:50:14.982Z,1006.79
2018-06-05T17:50:50.381Z,1006.79
2018-06-05T17:51:25.683Z,1006.80
2018-06-05T17:52:00.996Z,1006.77
2018-06-05T17:52:36.160Z,1006.78
2018-06-05T17:53:11.554Z,1006.78
2018-06-05T17:53:46.886Z,1006.79
2018-06-05T17:54:22.212Z,1006.78
2018-06-05T17:54:57.846Z,1006.79
2018-06-05T17:55:33.294Z,1006.78
2018-06-05T17:56:09.334Z,1006.77
2018-06-05T17:56:46.349Z,1006.76
2018-06-05T17:57:21.675Z,1006.78
2018-06-05T17:57:59.200Z,1006.78
2018-06-05T17:58:34.925Z,1006.76
2018-06-05T17:59:10.538Z,1006.77
2018-06-05T17:59:45.797Z,1006.79
2018-06-05T18:00:21.187Z,1006.79
2018-06-05T18:00:57.171Z,1006.82
2018-06-05T18:01:32.790Z,1006.80
2018-06-05T18:02:08.216Z,1006.83
2018-06-05T18:02:43.623Z,1006.84
2018-06-05T18:03:19.049Z,1006.81
2018-06-05T18:04:01.471Z,1006.82
2018-06-05T18:04:36.771Z,1006.84
2018-06-05T18:05:12.234Z,1006.82
2018-06-05T18:05:47.769Z,1006.80
2018-06-05T18:06:23.073Z,1006.81
2018-06-05T18:06:58.556Z,1006.82
2018-06-05T18:07:33.960Z,1006.82
2018-06-05T18:08:09.970Z,1006.82
2018-06-05T18:08:45.391Z,1006.81
2018-06-05T18:09:20.969Z,1006.80
2018-06-05T18:09:56.276Z,1006.79
2018-06-05T18:10:31.924Z,1006.79
2018-06-05T18:11:09.460Z,1006.79
2018-06-05T18:11:44.676Z,1006.79
2018-06-05T18:12:20.348Z,1006.81
2018-06-05T18:12:55.914Z,1006.82
2018-06-05T18:13:31.312Z,1006.84
2018-06-05T18:14:06.772Z,1006.84
2018-06-05T18:14:42.070Z,1006.83
2018-06-05T18:15:17.191Z,1006.85
2018-06-05T18:15:55.665Z,1006.83
2018-06-05T18:16:30.989Z,1006.87
2018-06-05T18:17:06.457Z,1006.85
2018-06-05T18:17:42.393Z,1006.86
2018-06-05T18:18:17.588Z,1006.88
2018-06-05T18:18:53.112Z,1006.84
2018-06-05T18:19:28.412Z,1006.83
2018-06-05T18:20:03.740Z,1006.84
2018-06-05T18:20:39.723Z,1006.82
2018-06-05T18:21:15.242Z,1006.85
2018-06-05T18:21:50.454Z,1006.84
2018-06-05T18:22:25.914Z,1006.84
2018-06-05T18:23:01.724Z,1006.85
2018-06-05T18:23:36.978Z,1006.83
2018-06-05T18:24:12.795Z,1006.84
2018-06-05T18:24:48.916Z,1006.86
2018-06-05T18:25:24.404Z,1006.85
2018-06-05T18:25:59.450Z,1006.85
2018-06-05T18:26:34.767Z,1006.83
2018-06-05T18:27:10.131Z,1006.85
2018-06-05T18:27:45.567Z,1006.83
2018-06-05T18:28:21.606Z,1006.84
2018-06-05T18:28:56.897Z,1006.82
2018-06-05T18:29:35.937Z,1006.83
2018-06-05T18:30:11.446Z,1006.84
2018-06-05T18:30:48.216Z,1006.83
2018-06-05T18:31:24.924Z,1006.81
2018-06-05T18:32:00.386Z,1006.84
2018-06-05T18:32:36.101Z,1006.83
2018-06-05T18:33:13.553Z,1006.85
2018-06-05T18:33:48.863Z,1006.82
2018-06-05T18:34:24.699Z,1006.85
2018-06-05T18:34:59.971Z,1006.84
2018-06-05T18:35:35.438Z,1006.84
2018-06-05T18:36:11.544Z,1006.89
2018-06-05T18:36:47.068Z,1006.88
2018-06-05T18:37:22.223Z,1006.87
2018-06-05T18:37:57.411Z,1006.84
2018-06-05T18:38:32.802Z,1006.87
2018-06-05T18:39:08.288Z,1006.91
2018-06-05T18:39:43.511Z,1006.89
2018-06-05T18:40:19.043Z,1006.88
2018-06-05T18:40:54.400Z,1006.86
2018-06-05T18:41:29.458Z,1006.90
2018-06-05T18:42:05.057Z,1006.88
2018-06-05T18:42:40.908Z,1006.89
2018-06-05T18:43:16.529Z,1006.87
2018-06-05T18:43:54.855Z,1006.90
2018-06-05T18:44:30.255Z,1006.90
2018-06-05T18:45:05.758Z,1006.88
2018-06-05T18:45:41.085Z,1006.86
2018-06-05T18:46:16.434Z,1006.87
2018-06-05T18:46:51.628Z,1006.88
2018-06-05T18:47:27.271Z,1006.90
2018-06-05T18:48:03.140Z,1006.90
2018-06-05T18:48:38.473Z,1006.87
2018-06-05T18:49:13.783Z,1006.89
2018-06-05T18:49:49.089Z,1006.89
2018-06-05T18:50:24.781Z,1006.91
2018-06-05T18:51:00.405Z,1006.90
2018-06-05T18:51:35.712Z,1006.95
2018-06-05T18:52:11.134Z,1006.90
2018-06-05T18:52:46.499Z,1006.94
2018-06-05T18:53:21.714Z,1006.95
2018-06-05T18:53:57.003Z,1006.95
2018-06-05T18:54:32.243Z,1006.97
2018-06-05T18:55:08.465Z,1006.97
2018-06-05T18:55:43.793Z,1006.97
2018-06-05T18:56:19.111Z,1006.99
2018-06-05T18:56:54.452Z,1006.98
2018-06-05T18:57:29.678Z,1006.96
2018-06-05T18:58:05.114Z,1007.02
2018-06-05T18:58:40.651Z,1007.01
2018-06-05T18:59:16.002Z,1007.00
2018-06-05T18:59:52.076Z,1007.05
2018-06-05T19:00:27.421Z,1007.01
2018-06-05T19:01:03.715Z,1007.00
2018-06-05T19:01:39.258Z,1007.03
2018-06-05T19:02:14.686Z,1007.06
2018-06-05T19:02:49.897Z,1007.05
2018-06-05T19:03:25.194Z,1007.03
2018-06-05T19:04:00.799Z,1007.02
2018-06-05T19:04:36.439Z,1007.02
2018-06-05T19:05:11.773Z,1007.06
2018-06-05T19:05:47.269Z,1007.02
2018-06-05T19:06:22.639Z,1007.05
2018-06-05T19:06:57.909Z,1007.07
2018-06-05T19:07:33.044Z,1007.06
2018-06-05T19:08:08.626Z,1007.05
2018-06-05T19:08:44.160Z,1007.08
2018-06-05T19:09:19.514Z,1007.07
2018-06-05T19:09:54.836Z,1007.10
2018-06-05T19:10:30.026Z,1007.08
2018-06-05T19:11:05.304Z,1007.08
2018-06-05T19:11:41.617Z,1007.11
2018-06-05T19:12:17.275Z,1007.11
2018-06-05T19:12:52.566Z,1007.12
2018-06-05T19:13:28.012Z,1007.12
2018-06-05T19:14:03.433Z,1007.14
2018-06-05T19:14:39.003Z,1007.11
2018-06-05T19:15:14.374Z,1007.14
2018-06-05T19:15:50.507Z,1007.12
2018-06-05T19:16:25.719Z,1007.15
2018-06-05T19:17:01.270Z,1007.19
2018-06-05T19:17:36.489Z,1007.15
2018-06-05T19:18:11.813Z,1007.16
2018-06-05T19:18:47.725Z,1007.17
2018-06-05T19:19:22.945Z,1007.16
2018-06-05T19:19:58.307Z,1007.16
2018-06-05T19:20:33.711Z,1007.17
2018-06-05T19:21:09.663Z,1007.18
2018-06-05T19:21:45.122Z,1007.19
2018-06-05T19:22:20.336Z,1007.18
2018-06-05T19:22:55.873Z,1007.17
2018-06-05T19:23:31.368Z,1007.20
2018-06-05T19:24:06.652Z,1007.20
2018-06-05T19:24:41.973Z,1007.19
2018-06-05T19:25:17.448Z,1007.16
2018-06-05T19:25:52.727Z,1007.19
2018-06-05T19:26:28.363Z,1007.16
2018-06-05T19:27:03.499Z,1007.18
2018-06-05T19:27:38.816Z,1007.20
2018-06-05T19:28:14.130Z,1007.16
2018-06-05T19:28:49.353Z,1007.21
2018-06-05T19:29:24.840Z,1007.18
2018-06-05T19:30:00.201Z,1007.19
2018-06-05T19:30:35.680Z,1007.19
2018-06-05T19:31:11.331Z,1007.23
2018-06-05T19:31:46.422Z,1007.20
2018-06-05T19:32:21.759Z,1007.23
2018-06-05T19:32:57.051Z,1007.23
2018-06-05T19:33:32.615Z,1007.21
2018-06-05T19:34:08.032Z,1007.22
2018-06-05T19:34:43.814Z,1007.25
2018-06-05T19:35:19.485Z,1007.22
2018-06-05T19:35:54.937Z,1007.26
2018-06-05T19:36:30.269Z,1007.27
2018-06-05T19:37:05.623Z,1007.31
2018-06-05T19:37:41.341Z,1007.29
2018-06-05T19:38:16.565Z,1007.27
2018-06-05T19:38:51.684Z,1007.31
2018-06-05T19:39:26.798Z,1007.31
2018-06-05T19:40:02.335Z,1007.29
2018-06-05T19:40:38.965Z,1007.31
2018-06-05T19:41:14.222Z,1007.30
2018-06-05T19:41:49.848Z,1007.34
2018-06-05T19:42:25.260Z,1007.33
2018-06-05T19:43:00.893Z,1007.29
2018-06-05T19:43:36.285Z,1007.32
2018-06-05T19:44:11.591Z,1007.29
2018-06-05T19:44:47.023Z,1007.33
2018-06-05T19:45:22.449Z,1007.30
2018-06-05T19:45:57.754Z,1007.33
2018-06-05T19:46:33.238Z,1007.32
2018-06-05T19:47:08.711Z,1007.34
2018-06-05T19:47:43.943Z,1007.34
2018-06-05T19:48:19.784Z,1007.31
2018-06-05T19:48:55.048Z,1007.32
2018-06-05T19:49:30.155Z,1007.31
2018-06-05T19:50:05.571Z,1007.31
2018-06-05T19:50:41.577Z,1007.35
2018-06-05T19:51:16.902Z,1007.35
2018-06-05T19:51:52.841Z,1007.38
2018-06-05T19:52:28.409Z,1007.34
2018-06-05T19:53:03.561Z,1007.36
2018-06-05T19:53:39.087Z,1007.41
2018-06-05T19:54:14.205Z,1007.40